createdAt,value
2018-11-02T00:01:42.609Z,1.37
2018-11-02T00:07:45.413Z,1.60
2018-11-02T00:13:49.080Z,1.60
2018-11-02T00:19:52.770Z,1.40
2018-11-02T00:25:55.383Z,1.30
2018-11-02T00:31:58.241Z,1.20
2018-11-02T00:38:00.992Z,1.70
2018-11-02T00:44:03.849Z,1.10
2018-11-02T00:50:09.329Z,1.40
2018-11-02T00:56:17.160Z,1.40
2018-11-02T01:02:19.632Z,1.30
2018-11-02T01:08:22.161Z,1.30
2018-11-02T01:14:25.059Z,1.10
2018-11-02T01:20:28.844Z,1.47
2018-11-02T01:26:32.186Z,1.43
2018-11-02T01:32:34.811Z,1.30
2018-11-02T01:38:37.483Z,1.03
2018-11-02T01:44:40.442Z,1.20
2018-11-02T01:50:43.815Z,1.40
2018-11-02T01:56:46.516Z,1.20
2018-11-02T02:02:49.161Z,1.40
2018-11-02T02:08:51.874Z,1.57
2018-11-02T02:14:54.935Z,1.17
2018-11-02T02:20:57.470Z,1.10
2018-11-02T02:27:00.008Z,1.00
2018-11-02T02:33:03.240Z,1.37
2018-11-02T02:39:07.644Z,0.90
2018-11-02T02:45:11.426Z,1.20
2018-11-02T02:51:14.958Z,1.07
2018-11-02T02:57:18.318Z,0.90
2018-11-02T03:03:21.701Z,1.03
2018-11-02T03:09:24.578Z,1.17
2018-11-02T03:15:27.010Z,0.93
2018-11-02T03:21:29.585Z,1.20
2018-11-02T03:27:33.239Z,0.90
2018-11-02T03:33:35.800Z,1.03
2018-11-02T03:39:38.263Z,1.10
2018-11-02T03:45:41.057Z,1.20
2018-11-02T03:51:43.579Z,1.07
2018-11-02T03:57:46.548Z,1.07
2018-11-02T04:03:49.196Z,0.73
2018-11-02T04:09:51.978Z,0.87
2018-11-02T04:15:54.533Z,1.00
2018-11-02T04:21:57.918Z,1.07
2018-11-02T04:28:00.484Z,0.90
2018-11-02T04:34:03.124Z,1.10
2018-11-02T04:40:06.448Z,0.80
2018-11-02T04:46:09.134Z,1.00
2018-11-02T04:52:18.784Z,0.70
2018-11-02T04:58:21.353Z,0.90
2018-11-02T05:04:24.570Z,0.90
2018-11-02T05:10:27.346Z,0.90
2018-11-02T05:16:30.626Z,0.80
2018-11-02T05:22:33.753Z,1.00
2018-11-02T05:28:42.974Z,1.07
2018-11-02T05:34:51.053Z,1.03
2018-11-02T05:40:54.587Z,0.80
2018-11-02T05:46:58.309Z,0.83
2018-11-02T05:53:02.068Z,0.90
2018-11-02T05:59:05.402Z,1.07
2018-11-02T06:05:09.502Z,1.90
2018-11-02T06:11:12.357Z,2.00
2018-11-02T06:17:14.862Z,2.33
2018-11-02T06:23:17.915Z,1.93
2018-11-02T06:29:20.389Z,2.10
2018-11-02T06:35:22.789Z,2.10
2018-11-02T06:41:25.373Z,2.27
2018-11-02T06:47:28.251Z,2.03
2018-11-02T06:53:30.769Z,3.17
2018-11-02T06:59:37.158Z,2.70
2018-11-02T07:05:39.897Z,2.53
2018-11-02T07:11:42.459Z,2.60
2018-11-02T07:17:46.371Z,2.00
2018-11-02T07:23:50.075Z,3.10
2018-11-02T07:29:52.809Z,4.37
2018-11-02T07:35:55.350Z,4.73
2018-11-02T07:41:58.644Z,4.83
2018-11-02T07:48:01.028Z,4.43
2018-11-02T07:54:04.646Z,4.63
2018-11-02T08:00:10.711Z,5.07
2018-11-02T08:06:13.399Z,5.17
2018-11-02T08:12:16.668Z,5.20
2018-11-02T08:18:19.466Z,4.60
2018-11-02T08:24:21.948Z,4.30
2018-11-02T08:30:24.456Z,4.67
2018-11-02T08:36:26.909Z,4.73
2018-11-02T08:42:29.486Z,4.40
2018-11-02T08:48:32.317Z,4.67
2018-11-02T08:54:35.945Z,4.40
2018-11-02T09:00:38.701Z,4.27
2018-11-02T09:06:41.256Z,4.00
2018-11-02T09:12:43.887Z,4.40
2018-11-02T09:18:47.401Z,4.33
2018-11-02T09:24:51.169Z,4.13
2018-11-02T09:30:54.035Z,4.33
2018-11-02T09:36:56.698Z,4.47
2018-11-02T09:42:59.617Z,4.00
2018-11-02T09:49:02.332Z,4.53
2018-11-02T09:55:05.781Z,3.77
2018-11-02T10:01:08.746Z,4.07
2018-11-02T10:07:11.599Z,3.90
2018-11-02T10:13:14.545Z,3.97
2018-11-02T10:19:17.039Z,3.73
2018-11-02T10:25:19.591Z,3.70
2018-11-02T10:31:22.172Z,4.03
2018-11-02T10:37:25.042Z,3.77
2018-11-02T10:43:29.312Z,3.80
2018-11-02T10:49:33.204Z,3.50
2018-11-02T10:55:35.608Z,3.53
2018-11-02T11:01:43.876Z,3.33
2018-11-02T11:07:46.850Z,3.80
2018-11-02T11:13:49.649Z,3.07
2018-11-02T11:19:52.146Z,3.97
2018-11-02T11:25:54.758Z,3.40
2018-11-02T11:31:57.346Z,3.50
2018-11-02T11:37:59.962Z,3.60
2018-11-02T11:44:02.610Z,3.00
2018-11-02T11:50:10.152Z,3.40
2018-11-02T11:56:12.837Z,3.00
2018-11-02T12:02:15.662Z,3.20
2018-11-02T12:08:18.691Z,3.23
2018-11-02T12:14:21.214Z,3.20
2018-11-02T12:20:26.799Z,3.23
2018-11-02T12:26:29.441Z,3.10
2018-11-02T12:32:32.006Z,2.80
2018-11-02T12:38:34.725Z,3.20
2018-11-02T12:44:37.510Z,2.70
2018-11-02T12:50:41.148Z,2.80
2018-11-02T12:56:44.178Z,3.20
2018-11-02T13:02:47.821Z,2.70
2018-11-02T13:08:50.853Z,2.50
2018-11-02T13:14:53.519Z,2.63
2018-11-02T13:20:56.438Z,2.83
2018-11-02T13:27:00.097Z,2.40
2018-11-02T13:33:03.405Z,3.63
2018-11-02T13:39:09.350Z,3.17
2018-11-02T13:45:13.427Z,3.07
2018-11-02T13:51:16.246Z,2.40
2018-11-02T13:57:20.103Z,2.03
2018-11-02T14:03:22.870Z,2.10
2018-11-02T14:09:25.329Z,2.40
2018-11-02T14:15:27.789Z,2.40
2018-11-02T14:21:30.353Z,2.60
2018-11-02T14:27:33.479Z,2.23
2018-11-02T14:33:36.166Z,2.40
2018-11-02T14:39:39.714Z,2.20
2018-11-02T14:45:42.639Z,2.23
2018-11-02T14:51:46.184Z,2.60
2018-11-02T14:57:48.824Z,2.20
2018-11-02T15:03:51.536Z,2.00
2018-11-02T15:09:54.047Z,2.77
2018-11-02T15:15:56.824Z,2.57
2018-11-02T15:21:59.373Z,2.73
2018-11-02T15:28:01.956Z,2.03
2018-11-02T15:34:05.045Z,2.30
2018-11-02T15:40:09.410Z,2.33
2018-11-02T15:46:13.363Z,2.03
2018-11-02T15:52:16.653Z,2.10
2018-11-02T15:58:20.414Z,1.70
2018-11-02T16:04:22.971Z,1.73
2018-11-02T16:10:25.457Z,1.90
2018-11-02T16:16:28.004Z,1.80
2018-11-02T16:22:30.602Z,1.80
2018-11-02T16:28:33.714Z,1.80
2018-11-02T16:34:36.318Z,1.90
2018-11-02T16:40:40.154Z,2.00
2018-11-02T16:46:43.545Z,1.80
2018-11-02T16:52:46.407Z,2.27
2018-11-02T16:58:50.246Z,1.90
2018-11-02T17:04:53.747Z,2.30
2018-11-02T17:10:58.080Z,2.73
2018-11-02T17:17:00.926Z,3.67
2018-11-02T17:23:03.668Z,3.37
2018-11-02T17:29:06.313Z,3.10
2018-11-02T17:37:43.804Z,2.73
2018-11-02T17:43:46.397Z,2.67
2018-11-02T17:49:49.746Z,2.67
2018-11-02T17:55:52.595Z,2.37
2018-11-02T18:01:56.542Z,2.10
2018-11-02T18:07:59.186Z,1.97
2018-11-02T18:14:01.702Z,2.00
2018-11-02T18:20:06.019Z,1.50
2018-11-02T18:26:08.508Z,1.80
2018-11-02T18:32:11.077Z,1.93
2018-11-02T18:38:14.956Z,1.50
2018-11-02T18:44:17.545Z,1.53
2018-11-02T18:50:21.298Z,1.60
2018-11-02T18:56:23.989Z,1.83
2018-11-02T19:02:26.480Z,1.57
2018-11-02T19:08:29.025Z,1.60
2018-11-02T19:14:31.550Z,1.43
2018-11-02T19:20:34.228Z,1.40
2018-11-02T19:26:36.691Z,1.57
2018-11-02T19:32:39.285Z,1.40
2018-11-02T19:38:42.020Z,1.50
2018-11-02T19:44:44.440Z,1.63
2018-11-02T19:50:47.187Z,1.40
2018-11-02T19:56:49.840Z,1.50
2018-11-02T20:02:52.576Z,1.40
2018-11-02T20:08:56.439Z,1.30
2018-11-02T20:14:58.917Z,1.50
2018-11-02T20:21:01.711Z,1.53
2018-11-02T20:27:05.119Z,1.40
2018-11-02T20:33:07.572Z,1.80
2018-11-02T20:39:11.181Z,1.70
2018-11-02T20:45:13.908Z,1.30
2018-11-02T20:51:17.134Z,1.50
2018-11-02T20:57:19.732Z,1.60
2018-11-02T21:03:22.663Z,1.40
2018-11-02T21:09:26.713Z,2.02
2018-11-02T21:15:29.230Z,1.80
2018-11-02T21:21:31.817Z,1.43
2018-11-02T21:27:34.774Z,1.80
2018-11-02T21:33:37.497Z,2.27
2018-11-02T21:39:40.730Z,1.70
2018-11-02T21:45:43.188Z,1.23
2018-11-02T21:51:45.934Z,1.63
2018-11-02T21:57:49.697Z,1.53
2018-11-02T22:03:52.879Z,1.47
2018-11-02T22:09:55.973Z,1.47
2018-11-02T22:15:59.090Z,1.37
2018-11-02T22:22:01.631Z,1.50
2018-11-02T22:28:04.181Z,1.53
2018-11-02T22:34:06.796Z,1.60
2018-11-02T22:40:10.578Z,1.73
2018-11-02T22:46:13.020Z,1.23
2018-11-02T22:52:15.528Z,1.50
2018-11-02T22:58:18.062Z,1.60
2018-11-02T23:04:20.875Z,2.10
2018-11-02T23:10:23.637Z,2.20
2018-11-02T23:16:27.369Z,1.80
2018-11-02T23:22:30.184Z,1.70
2018-11-02T23:28:32.766Z,2.07
2018-11-02T23:34:35.698Z,2.07
2018-11-02T23:40:38.415Z,1.93
2018-11-02T23:46:41.511Z,1.90
2018-11-02T23:52:44.230Z,1.93
2018-11-02T23:58:53.002Z,1.77
